Time;durP1;ratioP1;P1;durP2;ratioP2;P2;SDS_P1;SDS_P2;PMS_P1;PMS_P2;Temp;Humidity;BMP_temperature;BMP_pressure;BME280_temperature;BME280_humidity;BME280_pressure;Samples;Min_cycle;Max_cycle;Signal;HPM_P1;HPM_P2
2020/12/13 00:02:21;;;;;;;9.02;6.43;;;;;;;5.32;95.16;96264.34;4967221;28;20493;-76
2020/12/13 00:04:50;;;;;;;10.90;6.30;;;;;;;5.36;95.30;96265.44;4967080;28;20226;-76
2020/12/13 00:07:16;;;;;;;10.15;5.95;;;;;;;5.38;94.93;96276.31;4952660;28;20045;-76
2020/12/13 00:09:42;;;;;;;10.52;6.82;;;;;;;5.33;95.03;96278.81;4950767;28;20035;-76
2020/12/13 00:12:08;;;;;;;10.95;7.82;;;;;;;5.32;95.01;96290.16;4944043;29;20530;-76
2020/12/13 00:14:34;;;;;;;10.93;8.02;;;;;;;5.30;94.83;96284.44;4965199;28;20050;-76
2020/12/13 00:17:00;;;;;;;12.45;8.18;;;;;;;5.28;94.94;96288.25;4934962;29;20035;-76
2020/12/13 00:19:27;;;;;;;13.27;7.85;;;;;;;5.31;94.82;96295.53;4947740;28;20089;-76
2020/12/13 00:21:55;;;;;;;11.18;7.18;;;;;;;5.30;95.32;96294.78;4942709;28;20106;-76
2020/12/13 00:24:22;;;;;;;18.38;8.80;;;;;;;5.29;94.78;96292.41;4966304;28;21553;-76
2020/12/13 00:26:48;;;;;;;15.02;8.45;;;;;;;5.34;nan;96295.09;4961002;28;20122;-76
2020/12/13 00:29:15;;;;;;;14.35;8.45;;;;;;;5.34;95.20;96298.44;4967742;28;20709;-76
2020/12/13 00:31:40;;;;;;;15.77;8.90;;;;;;;5.33;94.95;96289.16;4951226;28;20034;-77
2020/12/13 00:34:07;;;;;;;15.60;8.60;;;;;;;5.31;95.11;96301.47;4951857;28;20042;-76
2020/12/13 00:36:33;;;;;;;15.70;9.30;;;;;;;5.33;95.21;96307.22;4980176;28;20085;-76
2020/12/13 00:38:59;;;;;;;14.35;9.27;;;;;;;5.32;95.34;96302.28;4951428;28;20350;-76
2020/12/13 00:41:25;;;;;;;16.20;8.13;;;;;;;5.31;95.33;96309.22;4944595;29;20074;-76
2020/12/13 00:43:51;;;;;;;18.50;9.43;;;;;;;5.23;95.43;96307.81;4950458;28;20054;-76
2020/12/13 00:46:17;;;;;;;18.45;8.90;;;;;;;5.24;95.52;96306.00;4950600;28;20074;-76
2020/12/13 00:48:42;;;;;;;18.77;9.82;;;;;;;5.26;95.79;96306.59;4935041;28;20524;-76
2020/12/13 00:51:08;;;;;;;20.73;11.63;;;;;;;5.27;95.58;96305.56;4941004;28;20081;-76
2020/12/13 00:53:34;;;;;;;17.58;9.77;;;;;;;5.25;95.52;96303.19;4967401;28;20038;-76
2020/12/13 00:56:00;;;;;;;18.17;10.95;;;;;;;5.37;nan;96315.28;4934966;28;20300;-76
2020/12/13 00:58:26;;;;;;;19.05;9.95;;;;;;;5.38;95.63;96315.06;4964168;28;20034;-76
2020/12/13 01:00:51;;;;;;;18.38;10.40;;;;;;;5.38;95.88;96309.09;4921554;28;20035;-76
2020/12/13 01:03:17;;;;;;;15.70;9.65;;;;;;;5.30;95.60;96309.47;4942647;28;20490;-76
2020/12/13 01:05:43;;;;;;;17.98;9.85;;;;;;;5.32;95.65;96308.22;4934450;28;20064;-76
2020/12/13 01:08:09;;;;;;;15.05;9.60;;;;;;;5.30;95.41;96312.84;4964371;28;20485;-76
2020/12/13 01:10:35;;;;;;;15.13;8.85;;;;;;;5.30;95.03;96312.06;4959804;28;20035;-76
2020/12/13 01:13:01;;;;;;;15.23;8.55;;;;;;;5.29;95.90;96313.84;4935509;28;20520;-76
2020/12/13 01:15:27;;;;;;;16.02;8.90;;;;;;;5.41;95.20;96326.69;4966672;28;20487;-76
2020/12/13 01:17:54;;;;;;;14.60;8.77;;;;;;;5.35;94.63;96325.84;4937738;28;20403;-76
2020/12/13 01:20:20;;;;;;;13.60;8.50;;;;;;;5.39;95.47;96334.66;4945415;28;20038;-76
2020/12/13 01:22:46;;;;;;;17.70;9.40;;;;;;;5.35;95.50;96346.47;4949234;28;20034;-76
2020/12/13 01:25:13;;;;;;;15.77;8.85;;;;;;;5.34;94.67;96342.31;4947495;28;20026;-76
2020/12/13 01:27:39;;;;;;;13.93;9.15;;;;;;;5.35;nan;96349.06;4950930;28;20035;-76
2020/12/13 01:30:07;;;;;;;14.13;8.65;;;;;;;5.39;95.45;96349.38;4950405;28;20478;-76
2020/12/13 01:32:40;;;;;;;15.70;8.23;;;;;;;5.39;95.47;96352.75;4942842;28;20225;-76
2020/12/13 01:35:07;;;;;;;17.67;9.40;;;;;;;5.38;94.96;96351.19;4932277;28;20037;-76
2020/12/13 01:37:33;;;;;;;15.32;7.93;;;;;;;5.46;94.74;96357.00;4952803;28;20040;-76
2020/12/13 01:39:59;;;;;;;14.60;8.93;;;;;;;5.49;94.78;96364.28;4953521;28;20042;-76
2020/12/13 01:42:25;;;;;;;16.73;9.02;;;;;;;5.43;95.00;96368.53;4947675;28;20027;-76
2020/12/13 01:44:51;;;;;;;13.10;7.88;;;;;;;5.37;94.57;96372.84;4966739;28;20054;-76
2020/12/13 01:47:18;;;;;;;16.73;8.13;;;;;;;5.38;95.12;96376.19;4949183;28;20039;-76
2020/12/13 01:49:47;;;;;;;11.93;7.75;;;;;;;5.40;94.87;96374.97;4966007;28;20038;-76
2020/12/13 01:54:58;;;;;;;14.55;8.60;;;;;;;5.37;95.27;96372.84;4955112;28;20034;-76
2020/12/13 01:57:24;;;;;;;17.88;9.07;;;;;;;5.28;95.11;96368.28;4940600;29;20495;-76
2020/12/13 01:59:51;;;;;;;14.48;8.15;;;;;;;5.36;95.33;96386.75;4959552;28;20206;-76
2020/12/13 02:02:22;;;;;;;13.82;8.25;;;;;;;5.34;95.83;96383.63;4933856;28;20491;-75
2020/12/13 02:04:53;;;;;;;15.63;8.43;;;;;;;5.37;95.43;96387.56;4984551;23;20051;-79
2020/12/13 02:07:19;;;;;;;13.07;7.82;;;;;;;5.36;95.25;96385.97;4947485;28;20019;-79
2020/12/13 02:09:45;;;;;;;13.73;8.30;;;;;;;5.35;95.17;96389.59;4949832;28;20041;-79
2020/12/13 02:12:11;;;;;;;16.25;9.25;;;;;;;5.36;95.65;96388.56;4950073;28;20106;-79
2020/12/13 02:14:37;;;;;;;13.55;7.57;;;;;;;5.38;95.11;96389.91;4981946;28;20347;-79
2020/12/13 02:17:04;;;;;;;14.65;8.15;;;;;;;5.41;95.34;96391.22;4949892;28;20035;-79
2020/12/13 02:19:30;;;;;;;12.00;7.88;;;;;;;5.53;95.50;96401.50;4966079;28;20549;-79
2020/12/13 02:22:00;;;;;;;13.85;7.60;;;;;;;5.43;94.91;96397.75;4965919;28;20027;-79
2020/12/13 02:24:26;;;;;;;12.07;7.55;;;;;;;5.54;94.49;96403.88;4980409;28;20034;-79
2020/12/13 02:26:52;;;;;;;12.43;7.35;;;;;;;5.49;94.52;96408.94;4966881;28;20483;-79
2020/12/13 02:29:18;;;;;;;13.27;7.20;;;;;;;5.48;94.33;96412.53;4980846;28;20323;-79
2020/12/13 02:31:44;;;;;;;14.10;7.65;;;;;;;5.53;94.16;96417.78;4949870;28;20031;-79
2020/12/13 02:34:10;;;;;;;11.73;7.18;;;;;;;5.55;94.68;96426.09;4968991;28;20031;-79
2020/12/13 02:36:36;;;;;;;13.10;7.85;;;;;;;5.54;93.81;96421.94;4966933;28;20038;-79
2020/12/13 02:39:05;;;;;;;12.48;7.30;;;;;;;5.46;94.42;96427.47;4986709;28;20401;-80
2020/12/13 02:41:32;;;;;;;10.90;7.15;;;;;;;5.39;94.41;96425.03;4986411;28;20038;-79
2020/12/13 02:43:58;;;;;;;13.25;8.00;;;;;;;5.36;94.82;96422.88;4953756;28;20046;-79
2020/12/13 02:46:24;;;;;;;13.10;7.45;;;;;;;5.37;94.81;96429.63;4953131;28;20489;-79
2020/12/13 02:48:50;;;;;;;13.32;7.15;;;;;;;5.49;94.47;96426.25;4963895;28;20688;-79
2020/12/13 02:51:19;;;;;;;12.65;7.25;;;;;;;5.49;94.45;96434.00;4932925;29;20043;-79
2020/12/13 02:53:45;;;;;;;11.77;7.40;;;;;;;5.57;94.57;96433.59;4932623;29;20393;-79
2020/12/13 02:56:11;;;;;;;10.27;6.68;;;;;;;5.55;94.37;96440.78;4932688;29;20035;-79
2020/12/13 02:58:37;;;;;;;12.75;8.55;;;;;;;5.47;94.24;96441.97;4933139;29;20241;-79
2020/12/13 03:01:05;;;;;;;11.27;7.10;;;;;;;5.48;94.57;96442.72;4950009;29;20031;-79
2020/12/13 03:03:33;;;;;;;12.02;7.80;;;;;;;5.61;93.80;96448.41;4965234;28;20050;-79
2020/12/13 03:05:59;;;;;;;10.50;6.47;;;;;;;5.53;93.53;96445.41;4934679;28;20530;-79
2020/12/13 03:08:25;;;;;;;11.23;7.15;;;;;;;5.55;93.43;96456.28;4954355;28;20095;-79
2020/12/13 03:10:51;;;;;;;10.93;6.97;;;;;;;5.55;93.96;96456.28;4972997;28;20066;-79
2020/12/13 03:13:17;;;;;;;12.90;7.57;;;;;;;5.53;93.94;96458.31;4955366;28;20035;-79
2020/12/13 03:15:43;;;;;;;13.10;8.23;;;;;;;5.55;94.08;96458.88;4939217;28;20030;-79
2020/12/13 03:18:08;;;;;;;11.10;7.03;;;;;;;5.55;93.79;96464.84;4972260;28;20061;-79
2020/12/13 03:20:34;;;;;;;9.80;7.07;;;;;;;5.65;92.98;96468.63;4938971;28;20061;-79
2020/12/13 03:23:00;;;;;;;9.55;6.68;;;;;;;5.60;93.20;96479.63;4972354;28;20030;-79
2020/12/13 03:25:26;;;;;;;12.77;7.00;;;;;;;5.50;93.97;96471.69;4971882;28;20031;-79
2020/12/13 03:27:51;;;;;;;10.70;7.43;;;;;;;5.55;94.19;96476.94;4954822;28;20125;-79
2020/12/13 03:30:17;;;;;;;8.77;6.15;;;;;;;5.56;93.48;96481.09;4971190;28;20441;-79
2020/12/13 03:32:43;;;;;;;11.15;6.53;;;;;;;5.52;93.75;96488.53;4970713;28;20031;-79
2020/12/13 03:35:08;;;;;;;10.65;6.07;;;;;;;5.62;93.65;96503.41;4970771;28;20049;-79
2020/12/13 03:37:35;;;;;;;9.57;6.30;;;;;;;5.57;92.74;96501.53;4972184;28;20101;-79
2020/12/13 03:40:00;;;;;;;9.32;6.60;;;;;;;5.54;92.75;96501.22;4939149;28;20173;-79
2020/12/13 03:42:26;;;;;;;9.23;6.65;;;;;;;5.45;94.01;96498.22;4954514;28;20034;-79
2020/12/13 03:44:52;;;;;;;10.68;6.43;;;;;;;5.49;94.14;96496.72;4954664;28;20068;-79
2020/12/13 03:47:18;;;;;;;9.45;6.53;;;;;;;5.42;93.75;96494.28;4938465;28;20038;-79
2020/12/13 03:49:44;;;;;;;11.30;6.90;;;;;;;5.34;93.46;96494.63;4939032;28;20434;-79
2020/12/13 03:52:09;;;;;;;8.48;5.55;;;;;;;5.29;93.84;96498.91;4922823;28;20085;-79
2020/12/13 03:54:35;;;;;;;10.50;6.60;;;;;;;5.30;93.90;96506.41;4971946;28;20070;-79
2020/12/13 03:57:03;;;;;;;10.57;6.20;;;;;;;5.35;94.37;96509.09;4938610;28;20093;-79
2020/12/13 03:59:28;;;;;;;8.75;6.03;;;;;;;5.33;94.22;96505.97;4941776;29;20062;-80
2020/12/13 04:01:54;;;;;;;8.95;6.03;;;;;;;5.32;94.18;96508.78;4935467;29;20027;-79
2020/12/13 04:04:20;;;;;;;9.93;6.57;;;;;;;5.37;94.07;96507.06;4918112;29;20498;-79
2020/12/13 04:06:46;;;;;;;11.82;6.93;;;;;;;5.27;94.02;96504.28;4937835;28;20047;-79
2020/12/13 04:09:11;;;;;;;8.70;5.85;;;;;;;5.30;94.27;96506.41;4954162;28;20493;-79
2020/12/13 04:11:37;;;;;;;8.77;6.40;;;;;;;5.32;93.82;96506.19;4971626;28;20045;-79
2020/12/13 04:14:03;;;;;;;10.77;6.78;;;;;;;5.31;93.81;96522.69;4953854;28;20038;-79
2020/12/13 04:16:30;;;;;;;8.75;6.35;;;;;;;5.31;93.99;96520.09;4938461;28;20027;-79
2020/12/13 04:18:56;;;;;;;8.45;6.07;;;;;;;5.25;93.77;96521.78;4953615;28;20026;-79
2020/12/13 04:21:22;;;;;;;12.63;6.90;;;;;;;5.23;93.83;96516.84;4971277;28;20238;-79
2020/12/13 04:23:48;;;;;;;10.25;6.93;;;;;;;5.23;94.14;96523.81;4970705;28;20037;-79
2020/12/13 04:26:14;;;;;;;10.02;6.63;;;;;;;5.21;94.56;96528.44;4969938;28;20046;-79
2020/12/13 04:28:40;;;;;;;9.85;6.63;;;;;;;5.27;93.96;96524.16;4970472;28;20038;-79
2020/12/13 04:31:06;;;;;;;10.60;6.93;;;;;;;5.25;94.30;96537.28;4970013;28;20558;-80
2020/12/13 04:33:32;;;;;;;9.52;6.43;;;;;;;5.21;93.75;96543.91;4953941;28;20485;-80
2020/12/13 04:35:57;;;;;;;11.55;7.40;;;;;;;5.21;94.60;96541.34;4953510;28;20046;-80
2020/12/13 04:38:23;;;;;;;9.80;6.38;;;;;;;5.20;93.98;96539.75;4962580;28;20140;-79
2020/12/13 04:40:49;;;;;;;10.77;7.28;;;;;;;5.27;94.29;96545.59;4990336;28;20044;-79
2020/12/13 04:43:15;;;;;;;11.23;7.47;;;;;;;5.22;94.16;96550.63;4956886;28;20030;-80
2020/12/13 04:45:41;;;;;;;12.68;7.25;;;;;;;5.27;94.22;96545.59;4972680;28;20046;-79
2020/12/13 04:48:08;;;;;;;9.85;7.20;;;;;;;5.32;93.97;96560.41;4956710;28;20469;-79
2020/12/13 04:50:37;;;;;;;12.00;7.50;;;;;;;5.28;94.24;96559.25;4973129;28;20428;-79
2020/12/13 04:53:05;;;;;;;11.90;7.75;;;;;;;5.19;94.12;96553.66;4972524;28;20030;-80
2020/12/13 04:55:51;;;;;;;13.48;7.53;;;;;;;5.16;94.82;96570.38;4972362;28;20038;-80
2020/12/13 04:58:17;;;;;;;;;;;;;;;5.14;94.94;96571.59;4973065;28;20337;-80
2020/12/13 05:00:45;;;;;;;11.43;7.18;;;;;;;5.09;94.26;96567.13;4972654;28;20392;-80
2020/12/13 05:03:15;;;;;;;10.15;7.13;;;;;;;5.07;94.82;96572.53;4972684;28;20093;-79
2020/12/13 05:05:41;;;;;;;13.30;8.10;;;;;;;5.12;94.79;96578.78;4981555;28;20102;-79
2020/12/13 05:08:07;;;;;;;10.93;7.25;;;;;;;5.13;94.66;96580.38;4952997;28;20066;-79
2020/12/13 05:10:38;;;;;;;15.07;8.60;;;;;;;5.06;95.15;96575.31;4952745;28;20066;-79
2020/12/13 05:13:08;;;;;;;11.25;7.18;;;;;;;5.05;95.50;96577.13;4953650;28;20026;-80
2020/12/13 05:15:35;;;;;;;12.07;7.47;;;;;;;5.12;95.17;96586.53;4951709;28;20533;-79
2020/12/13 05:18:01;;;;;;;15.02;9.27;;;;;;;5.07;95.10;96585.41;4953042;28;20039;-79
2020/12/13 05:20:27;;;;;;;11.98;7.57;;;;;;;5.07;94.77;96585.41;4952606;28;20058;-79
2020/12/13 05:22:58;;;;;;;12.82;8.07;;;;;;;5.10;94.73;96594.50;4969978;28;20482;-79
2020/12/13 05:25:32;;;;;;;14.57;8.63;;;;;;;5.07;94.73;96602.69;4968899;28;20062;-80
2020/12/13 05:28:01;;;;;;;12.00;8.27;;;;;;;5.09;95.14;96603.25;4967086;28;20034;-80
2020/12/13 05:30:37;;;;;;;12.82;7.75;;;;;;;5.16;95.07;96611.69;4935748;28;20046;-80
2020/12/13 05:33:20;;;;;;;15.65;8.18;;;;;;;5.14;94.60;96610.31;4962815;28;20050;-79
2020/12/13 05:35:46;;;;;;;14.52;8.10;;;;;;;5.21;94.41;96613.59;4934437;29;20043;-79
2020/12/13 05:38:13;;;;;;;13.13;7.93;;;;;;;5.12;94.54;96617.50;4924875;28;20043;-79
2020/12/13 05:40:41;;;;;;;10.82;7.72;;;;;;;5.12;94.67;96628.59;4970037;28;20575;-78
2020/12/13 05:43:13;;;;;;;10.88;7.22;;;;;;;5.09;94.58;96629.06;4969596;28;20031;-79
2020/12/13 05:51:54;;;;;;;10.80;7.03;;;;;;;5.15;94.49;96633.31;4893189;29;20591;-79
2020/12/13 05:54:23;;;;;;;10.55;6.82;;;;;;;5.25;93.34;96638.72;4889612;29;20036;-78
2020/12/13 05:56:55;;;;;;;10.50;7.13;;;;;;;5.19;93.62;96639.63;4890105;29;20496;-79
2020/12/13 05:59:31;;;;;;;10.68;6.82;;;;;;;5.13;94.45;96640.50;4908956;29;20451;-78
2020/12/13 06:01:59;;;;;;;10.18;6.88;;;;;;;5.18;93.97;96648.38;4892505;29;20535;-78
2020/12/13 06:04:30;;;;;;;11.55;6.30;;;;;;;5.14;93.75;96654.19;4906711;29;20278;-79
2020/12/13 06:06:58;;;;;;;10.02;6.70;;;;;;;5.18;94.10;96652.75;4889669;29;20507;-78
2020/12/13 06:09:40;;;;;;;8.85;6.60;;;;;;;5.24;93.42;96659.59;4873945;29;20188;-79
2020/12/13 06:12:11;;;;;;;10.32;6.40;;;;;;;5.22;93.29;96657.22;4873783;29;20029;-79
2020/12/13 06:14:38;;;;;;;9.07;6.35;;;;;;;5.13;93.21;96661.16;4905051;29;20648;-79
2020/12/13 06:17:04;;;;;;;9.02;6.75;;;;;;;5.02;93.31;96669.63;4908362;29;20124;-78
2020/12/13 06:19:32;;;;;;;10.70;6.95;;;;;;;5.13;93.90;96662.94;4908471;29;20484;-78
2020/12/13 06:22:00;;;;;;;11.05;6.93;;;;;;;5.05;93.50;96667.44;4926148;28;20390;-79
2020/12/13 06:24:27;;;;;;;10.88;7.10;;;;;;;5.09;93.73;96669.53;4951084;28;20074;-79
2020/12/13 06:26:54;;;;;;;8.70;6.53;;;;;;;5.03;93.14;96676.38;4968784;28;20062;-79
2020/12/13 06:29:22;;;;;;;10.20;7.28;;;;;;;5.06;93.21;96673.38;4951543;28;20030;-79
2020/12/13 06:31:49;;;;;;;9.77;7.13;;;;;;;5.13;93.11;96671.47;4940064;29;20523;-79
2020/12/13 06:34:15;;;;;;;11.77;7.47;;;;;;;5.07;92.88;96677.50;4946879;28;20030;-79
2020/12/13 06:36:42;;;;;;;12.63;7.97;;;;;;;5.04;93.13;96686.50;4952148;28;20031;-79
2020/12/13 06:39:14;;;;;;;12.85;7.88;;;;;;;4.97;93.25;96679.84;4952437;28;20114;-79
2020/12/13 06:41:42;;;;;;;13.00;7.40;;;;;;;5.02;92.98;96691.09;4952508;28;20358;-78
2020/12/13 06:44:09;;;;;;;13.60;7.80;;;;;;;4.91;93.11;96688.47;4936322;29;20487;-79
2020/12/13 06:46:40;;;;;;;12.30;7.78;;;;;;;4.91;93.01;96694.41;4952840;29;20066;-79
2020/12/13 06:49:11;;;;;;;10.48;7.68;;;;;;;4.92;93.18;96701.16;4937157;29;20027;-79
2020/12/13 06:51:39;;;;;;;11.80;7.72;;;;;;;4.91;92.84;96691.81;4939145;28;20491;-79
2020/12/13 06:54:10;;;;;;;12.25;7.53;;;;;;;4.94;92.80;96703.50;4952988;29;20114;-78
2020/12/13 06:56:36;;;;;;;8.77;5.93;;;;;;;4.93;92.44;96694.97;4936655;29;20032;-79
2020/12/13 06:59:04;;;;;;;9.32;6.47;;;;;;;4.91;92.09;96702.16;4952386;29;20045;-79
2020/12/13 07:01:32;;;;;;;10.23;6.50;;;;;;;4.99;92.42;96706.22;4935629;29;20549;-79
2020/12/13 07:04:21;;;;;;;8.93;6.25;;;;;;;4.98;92.32;96709.78;4962815;28;20046;-79
2020/12/13 07:06:50;;;;;;;9.27;5.80;;;;;;;4.99;91.59;96712.16;4955398;28;20039;-79
2020/12/13 07:09:16;;;;;;;10.27;5.47;;;;;;;4.90;91.72;96715.25;4955585;28;20035;-79
2020/12/13 07:11:44;;;;;;;10.50;5.75;;;;;;;4.80;91.83;96724.31;4954566;28;20035;-79
2020/12/13 07:14:13;;;;;;;8.80;5.78;;;;;;;4.78;92.29;96722.94;4954714;28;20050;-79
2020/12/13 07:16:46;;;;;;;9.10;5.30;;;;;;;4.77;92.34;96726.56;4956154;28;20385;-79
2020/12/13 07:19:14;;;;;;;9.23;5.20;;;;;;;4.76;92.02;96728.31;4954676;28;20596;-79
2020/12/13 07:21:42;;;;;;;7.75;4.72;;;;;;;4.87;91.82;96735.34;4954856;28;20049;-79
2020/12/13 07:24:09;;;;;;;7.40;4.43;;;;;;;4.79;91.89;96738.22;4954720;28;20158;-79
2020/12/13 07:26:36;;;;;;;7.45;4.90;;;;;;;4.73;91.75;96741.69;4954982;28;20065;-79
2020/12/13 07:29:04;;;;;;;9.27;4.25;;;;;;;4.76;91.96;96745.59;4955005;28;20178;-79
2020/12/13 07:31:35;;;;;;;7.25;4.75;;;;;;;4.65;92.01;96744.53;4954490;28;20034;-79
2020/12/13 07:34:05;;;;;;;7.93;4.05;;;;;;;4.62;91.94;96755.28;4955109;28;20113;-79
2020/12/13 07:36:32;;;;;;;7.15;4.00;;;;;;;4.62;92.30;96753.47;4955044;28;20177;-79
2020/12/13 07:39:02;;;;;;;8.38;4.30;;;;;;;4.63;92.06;96749.13;4953633;28;20070;-79
2020/12/13 07:41:27;;;;;;;6.75;3.92;;;;;;;4.64;92.17;96750.69;4957942;28;20035;-79
2020/12/13 07:43:54;;;;;;;7.18;4.40;;;;;;;4.68;91.81;96754.44;4951772;28;20035;-79
2020/12/13 07:46:21;;;;;;;7.38;3.90;;;;;;;4.67;91.90;96760.59;4954373;28;20039;-79
2020/12/13 07:49:18;;;;;;;7.68;4.85;;;;;;;4.68;91.21;96755.22;4954765;28;20042;-79
2020/12/13 07:51:52;;;;;;;7.57;4.38;;;;;;;4.55;91.90;96754.56;4971265;28;20073;-79
2020/12/13 07:54:26;;;;;;;9.15;4.10;;;;;;;4.58;92.70;96762.66;4936007;28;20437;-79
2020/12/13 07:56:56;;;;;;;12.38;5.22;;;;;;;4.55;92.32;96763.09;4970559;28;20105;-79
2020/12/13 07:59:24;;;;;;;7.35;4.55;;;;;;;4.62;92.17;96761.22;4954232;28;20038;-79
2020/12/13 08:01:52;;;;;;;7.82;4.65;;;;;;;4.59;92.53;96777.16;4951080;28;20057;-79
2020/12/13 08:04:35;;;;;;;7.10;4.63;;;;;;;4.49;92.63;96769.13;4946222;28;20062;-80
2020/12/13 08:07:03;;;;;;;7.65;4.80;;;;;;;4.53;93.07;96772.06;4947661;29;20565;-79
2020/12/13 08:09:29;;;;;;;7.78;4.93;;;;;;;4.55;93.12;96773.41;4951282;28;20027;-80
2020/12/13 08:11:56;;;;;;;8.95;5.38;;;;;;;4.57;93.13;96779.13;4969892;28;20046;-80
2020/12/13 08:14:23;;;;;;;8.68;5.65;;;;;;;4.61;93.41;96767.41;4954484;28;20036;-79
2020/12/13 08:16:54;;;;;;;8.55;4.80;;;;;;;4.59;92.98;96779.72;4950779;29;20487;-80
2020/12/13 08:19:32;;;;;;;7.28;5.07;;;;;;;4.58;92.87;96788.44;4950819;29;20496;-80
2020/12/13 08:22:02;;;;;;;9.18;5.25;;;;;;;4.67;93.20;96789.72;4957128;28;20027;-79
2020/12/13 08:24:29;;;;;;;8.70;5.03;;;;;;;4.61;92.98;96803.50;4950554;29;20497;-79
2020/12/13 08:26:57;;;;;;;8.98;5.75;;;;;;;4.61;92.93;96808.66;4950554;29;20118;-79
2020/12/13 08:29:24;;;;;;;9.93;6.57;;;;;;;4.60;92.92;96795.97;4933560;29;20043;-80
2020/12/13 08:31:50;;;;;;;7.07;4.85;;;;;;;4.68;93.03;96798.28;4949626;29;20678;-79
2020/12/13 08:34:26;;;;;;;9.70;5.40;;;;;;;4.71;93.10;96807.34;4966305;28;20110;-79
2020/12/13 08:36:53;;;;;;;11.32;6.03;;;;;;;4.63;92.40;96816.97;4950663;29;20031;-79
2020/12/13 08:39:27;;;;;;;12.30;6.60;;;;;;;4.66;92.89;96820.88;4950847;29;20444;-80
2020/12/13 08:41:54;;;;;;;9.90;6.00;;;;;;;4.65;93.42;96804.63;4950171;29;20151;-79
2020/12/13 08:44:28;;;;;;;11.38;5.40;;;;;;;4.76;93.06;96815.22;4948983;29;20031;-79
2020/12/13 08:46:54;;;;;;;9.48;5.40;;;;;;;4.86;92.52;96813.72;4949280;29;20066;-78
2020/12/13 08:49:25;;;;;;;10.18;6.38;;;;;;;4.86;92.11;96815.50;4951858;28;20410;-80
2020/12/13 08:51:51;;;;;;;10.50;6.22;;;;;;;4.83;92.73;96811.59;4965562;28;20427;-80
2020/12/13 08:54:17;;;;;;;8.10;5.85;;;;;;;4.82;92.54;96827.28;4949777;29;20039;-79
2020/12/13 08:56:43;;;;;;;9.90;6.20;;;;;;;4.83;92.66;96827.06;4951204;29;20039;-79
2020/12/13 08:59:09;;;;;;;10.50;6.25;;;;;;;4.79;92.14;96836.22;4950498;29;20427;-80
2020/12/13 09:01:40;;;;;;;9.90;6.13;;;;;;;4.78;93.62;96841.59;4949954;29;20035;-80
2020/12/13 09:04:20;;;;;;;9.35;6.43;;;;;;;4.91;93.22;96838.88;4952237;28;20039;-79
2020/12/13 09:06:54;;;;;;;12.18;6.63;;;;;;;4.84;92.74;96841.53;4953173;28;20429;-79
2020/12/13 09:09:20;;;;;;;8.63;5.22;;;;;;;4.84;92.56;96845.91;4970077;28;20027;-79
2020/12/13 09:11:46;;;;;;;10.60;6.53;;;;;;;4.86;93.48;96847.25;4938463;28;20524;-80
2020/12/13 09:14:19;;;;;;;11.18;6.47;;;;;;;4.90;92.54;96841.66;4933854;29;20039;-79
2020/12/13 09:16:47;;;;;;;11.10;6.18;;;;;;;4.88;92.95;96855.59;4938685;28;20070;-80
2020/12/13 09:19:13;;;;;;;10.13;5.90;;;;;;;5.03;92.94;96867.31;4968627;28;20046;-79
2020/12/13 09:21:40;;;;;;;10.27;6.53;;;;;;;4.90;92.71;96862.31;4970146;28;20489;-80
2020/12/13 09:24:06;;;;;;;9.18;5.80;;;;;;;5.07;92.53;96865.88;4952809;28;20027;-79
2020/12/13 09:26:32;;;;;;;9.27;6.45;;;;;;;5.16;92.71;96872.34;4949907;29;20035;-79
2020/12/13 09:28:58;;;;;;;13.77;7.15;;;;;;;5.13;93.02;96879.72;4951040;28;20065;-79
2020/12/13 09:31:24;;;;;;;9.68;6.25;;;;;;;5.17;92.37;96880.84;4969922;28;20074;-79
2020/12/13 09:33:50;;;;;;;12.23;6.75;;;;;;;5.12;92.95;96888.44;4968501;28;20039;-80
2020/12/13 09:36:16;;;;;;;9.80;6.78;;;;;;;5.09;92.84;96888.88;4970021;28;20038;-79
2020/12/13 09:38:41;;;;;;;9.52;6.35;;;;;;;5.10;92.04;96904.16;4952914;28;20070;-79
2020/12/13 09:41:07;;;;;;;12.10;6.50;;;;;;;5.11;92.35;96895.41;4952705;28;20470;-80
2020/12/13 09:43:33;;;;;;;10.23;7.13;;;;;;;5.11;92.32;96899.78;4968561;28;20035;-80
2020/12/13 09:45:59;;;;;;;13.23;7.53;;;;;;;5.20;91.89;96896.69;4969775;28;20043;-79
2020/12/13 09:48:25;;;;;;;10.75;6.95;;;;;;;5.17;92.03;96907.44;4952457;28;20030;-79
2020/12/13 09:50:51;;;;;;;12.23;7.03;;;;;;;5.26;91.80;96905.38;4952799;28;20053;-79
2020/12/13 09:53:18;;;;;;;10.25;6.90;;;;;;;5.18;91.82;96901.28;4952261;28;20105;-80
2020/12/13 09:55:44;;;;;;;11.00;7.05;;;;;;;5.21;91.86;96907.81;4969984;28;20504;-80
2020/12/13 09:58:10;;;;;;;10.25;7.00;;;;;;;5.16;92.49;96912.84;4968101;28;20034;-79
2020/12/13 10:00:35;;;;;;;9.90;6.63;;;;;;;5.19;91.83;96912.38;4952887;28;20366;-80
2020/12/13 10:03:01;;;;;;;11.18;6.22;;;;;;;5.09;91.99;96907.75;4952102;28;20157;-80
2020/12/13 10:05:42;;;;;;;12.15;7.13;;;;;;;5.07;92.62;96920.88;4951827;28;20146;-80
2020/12/13 10:10:42;;;;;;;11.60;6.63;;;;;;;5.18;92.75;96918.56;4953825;28;20596;-80
2020/12/13 10:13:08;;;;;;;12.20;7.10;;;;;;;5.14;92.97;96925.16;4942586;28;20073;-80
2020/12/13 10:15:34;;;;;;;13.05;7.60;;;;;;;5.13;92.82;96914.03;4933426;28;20071;-80
2020/12/13 10:17:59;;;;;;;9.55;6.28;;;;;;;5.23;92.80;96918.72;4951925;28;20217;-80
2020/12/13 10:20:25;;;;;;;12.30;6.50;;;;;;;5.29;92.74;96917.84;4972397;28;20039;-80
2020/12/13 10:22:51;;;;;;;9.57;6.43;;;;;;;5.30;92.78;96916.06;4973276;28;20386;-80
2020/12/13 10:25:19;;;;;;;9.88;5.78;;;;;;;5.45;92.08;96911.31;4972044;28;20063;-80
2020/12/13 10:27:44;;;;;;;10.20;6.00;;;;;;;5.44;92.68;96918.25;4940240;28;20237;-80
2020/12/13 10:30:10;;;;;;;10.02;6.55;;;;;;;5.40;91.99;96913.75;4955952;28;20031;-80
2020/12/13 10:32:36;;;;;;;12.55;5.38;;;;;;;5.34;91.63;96912.81;4956091;28;20494;-80
2020/12/13 10:35:02;;;;;;;11.02;5.82;;;;;;;5.42;92.33;96917.69;4972980;28;20035;-79
2020/12/13 10:37:28;;;;;;;9.48;5.10;;;;;;;5.47;91.15;96917.03;4955581;28;20382;-80
2020/12/13 10:39:54;;;;;;;8.90;5.00;;;;;;;5.32;91.46;96916.63;4956118;28;20390;-80
2020/12/13 10:42:20;;;;;;;6.32;4.55;;;;;;;5.30;91.32;96909.09;4955420;28;20027;-80
2020/12/13 10:44:46;;;;;;;9.50;5.07;;;;;;;5.26;91.19;96913.13;4972781;28;20489;-80
2020/12/13 10:47:12;;;;;;;8.45;5.10;;;;;;;5.20;91.29;96912.19;4953680;28;20419;-80
2020/12/13 10:49:40;;;;;;;8.23;4.47;;;;;;;5.40;91.51;96911.16;4973141;28;20509;-80
2020/12/13 10:52:05;;;;;;;8.35;4.10;;;;;;;5.42;90.88;96904.00;4955395;28;20030;-80
2020/12/13 10:54:32;;;;;;;10.15;4.88;;;;;;;5.39;91.42;96900.03;4972292;28;20094;-80
2020/12/13 10:56:58;;;;;;;8.00;4.18;;;;;;;5.46;90.68;96897.38;4955693;28;20026;-80
2020/12/13 10:59:24;;;;;;;6.68;4.15;;;;;;;5.51;90.36;96899.31;4991369;28;20103;-79
2020/12/13 11:01:49;;;;;;;7.75;4.13;;;;;;;5.55;89.62;96884.94;4991062;28;20041;-80
2020/12/13 11:04:18;;;;;;;7.80;3.70;;;;;;;5.48;89.69;96895.34;4982696;28;20069;-79
2020/12/13 11:06:47;;;;;;;9.10;4.25;;;;;;;5.43;89.95;96888.28;4946422;28;20491;-79
2020/12/13 11:09:13;;;;;;;12.45;4.57;;;;;;;5.34;90.01;96896.53;4954473;28;20039;-80
2020/12/13 11:11:39;;;;;;;6.03;3.67;;;;;;;5.18;90.44;96890.19;4936096;29;20302;-80
2020/12/13 11:14:05;;;;;;;6.28;3.60;;;;;;;5.23;90.36;96895.47;4952087;28;20070;-80
2020/12/13 11:16:31;;;;;;;10.38;4.30;;;;;;;5.25;89.37;96896.81;4955402;28;20070;-80
2020/12/13 11:18:57;;;;;;;6.43;3.70;;;;;;;5.27;89.30;96894.03;4955004;28;20478;-80
2020/12/13 11:21:23;;;;;;;5.75;2.90;;;;;;;5.30;88.72;96892.81;4956675;28;20598;-80
2020/12/13 11:23:49;;;;;;;5.78;3.20;;;;;;;5.25;88.97;96891.66;4935983;29;20055;-80
2020/12/13 11:26:14;;;;;;;7.25;2.90;;;;;;;5.28;89.30;96892.22;4926750;28;20691;-79
2020/12/13 11:28:40;;;;;;;7.47;2.75;;;;;;;5.49;89.53;96888.41;4968762;28;20397;-80
2020/12/13 11:31:06;;;;;;;5.05;3.08;;;;;;;5.75;88.75;96889.84;4970641;28;20034;-79
2020/12/13 11:33:32;;;;;;;3.70;2.85;;;;;;;5.99;86.12;96898.47;4958818;28;20449;-80
2020/12/13 11:35:58;;;;;;;5.85;2.67;;;;;;;6.01;86.47;96899.03;4954239;28;20170;-80
2020/12/13 11:38:24;;;;;;;3.97;2.22;;;;;;;6.15;86.60;96895.28;4954362;28;20043;-79
2020/12/13 11:40:50;;;;;;;3.70;2.40;;;;;;;6.18;85.76;96899.19;4971685;28;20520;-80
2020/12/13 11:43:16;;;;;;;4.65;2.60;;;;;;;6.14;85.47;96892.91;4960688;28;20073;-80
2020/12/13 11:45:42;;;;;;;4.75;2.70;;;;;;;6.07;86.10;96900.75;4937202;28;20035;-80
2020/12/13 11:48:08;;;;;;;3.47;2.90;;;;;;;5.96;84.81;96919.59;4952860;28;20042;-80
2020/12/13 11:50:40;;;;;;;4.25;2.95;;;;;;;5.79;84.87;96909.88;4969994;28;20027;-79